createdAt,value
2018-09-26T00:02:10.943Z,8.73
2018-09-26T00:04:54.031Z,8.97
2018-09-26T00:07:22.426Z,8.83
2018-09-26T00:09:50.995Z,8.85
2018-09-26T00:12:19.376Z,9.24
2018-09-26T00:14:47.751Z,9.15
2018-09-26T00:17:16.110Z,9.22
2018-09-26T00:19:44.515Z,8.56
2018-09-26T00:22:12.902Z,8.87
2018-09-26T00:24:41.332Z,8.85
2018-09-26T00:27:09.702Z,9.10
2018-09-26T00:29:38.128Z,9.02
2018-09-26T00:32:06.477Z,9.10
2018-09-26T00:34:34.874Z,9.16
2018-09-26T00:37:03.274Z,8.89
2018-09-26T00:39:31.598Z,9.11
2018-09-26T00:42:00.004Z,9.20
2018-09-26T00:44:28.371Z,9.31
2018-09-26T00:46:56.793Z,9.43
2018-09-26T00:49:25.271Z,9.07
2018-09-26T00:51:54.213Z,9.26
2018-09-26T00:54:22.850Z,9.08
2018-09-26T00:56:51.187Z,9.30
2018-09-26T00:59:19.601Z,9.51
2018-09-26T01:01:47.950Z,9.43
2018-09-26T01:04:16.352Z,9.39
2018-09-26T01:06:44.838Z,9.20
2018-09-26T01:09:13.243Z,9.56
2018-09-26T01:11:41.702Z,9.76
2018-09-26T01:14:10.112Z,9.66
2018-09-26T01:16:38.673Z,10.09
2018-09-26T01:19:07.118Z,9.17
2018-09-26T01:21:35.543Z,10.23
2018-09-26T01:24:03.967Z,10.28
2018-09-26T01:26:32.495Z,10.32
2018-09-26T01:29:00.949Z,10.41
2018-09-26T01:31:29.339Z,10.81
2018-09-26T01:33:57.735Z,10.94
2018-09-26T01:36:26.203Z,10.51
2018-09-26T01:38:54.599Z,10.68
2018-09-26T01:41:23.159Z,10.88
2018-09-26T01:43:51.471Z,11.19
2018-09-26T01:46:20.125Z,10.51
2018-09-26T01:48:48.645Z,11.31
2018-09-26T01:51:17.061Z,11.19
2018-09-26T01:53:45.506Z,12.04
2018-09-26T01:56:13.935Z,11.67
2018-09-26T01:58:42.347Z,11.20
2018-09-26T02:01:10.882Z,11.09
2018-09-26T02:03:39.340Z,11.55
2018-09-26T02:06:08.034Z,11.67
2018-09-26T02:08:36.491Z,11.57
2018-09-26T02:11:04.980Z,11.22
2018-09-26T02:13:33.395Z,11.80
2018-09-26T02:16:01.922Z,11.81
2018-09-26T02:18:30.549Z,11.82
2018-09-26T02:20:58.975Z,11.90
2018-09-26T02:23:27.426Z,11.66
2018-09-26T02:25:55.935Z,11.77
2018-09-26T02:28:24.343Z,11.52
2018-09-26T02:30:52.916Z,11.35
2018-09-26T02:33:21.375Z,11.97
2018-09-26T02:35:50.034Z,11.85
2018-09-26T02:38:18.430Z,11.95
2018-09-26T02:40:46.810Z,12.10
2018-09-26T02:43:15.220Z,11.49
2018-09-26T02:45:43.704Z,12.15
2018-09-26T02:48:16.595Z,11.49
2018-09-26T02:50:45.055Z,11.51
2018-09-26T02:53:13.547Z,10.90
2018-09-26T02:55:42.073Z,11.99
2018-09-26T02:58:10.471Z,12.11
2018-09-26T03:00:38.937Z,11.98
2018-09-26T03:03:07.377Z,12.07
2018-09-26T03:05:35.828Z,12.11
2018-09-26T03:08:04.340Z,12.33
2018-09-26T03:10:32.855Z,12.57
2018-09-26T03:13:01.231Z,12.31
2018-09-26T03:15:29.831Z,11.76
2018-09-26T03:17:58.287Z,10.69
2018-09-26T03:20:26.637Z,12.04
2018-09-26T03:23:01.708Z,11.67
2018-09-26T03:25:30.189Z,11.94
2018-09-26T03:27:58.628Z,11.98
2018-09-26T03:30:27.138Z,12.67
2018-09-26T03:32:55.547Z,12.02
2018-09-26T03:35:23.937Z,12.27
2018-09-26T03:37:52.452Z,12.22
2018-09-26T03:40:21.260Z,12.49
2018-09-26T03:42:49.655Z,11.94
2018-09-26T03:45:18.026Z,11.65
2018-09-26T03:47:46.392Z,11.72
2018-09-26T03:50:14.757Z,11.89
2018-09-26T03:52:43.096Z,12.14
2018-09-26T03:55:11.455Z,12.14
2018-09-26T03:57:39.818Z,12.13
2018-09-26T04:00:08.199Z,12.20
2018-09-26T04:02:36.544Z,12.13
2018-09-26T04:05:04.948Z,12.33
2018-09-26T04:07:33.253Z,12.07
2018-09-26T04:10:01.598Z,12.00
2018-09-26T04:12:29.994Z,11.95
2018-09-26T04:14:58.337Z,12.18
2018-09-26T04:17:26.729Z,12.07
2018-09-26T04:19:55.111Z,12.24
2018-09-26T04:22:23.428Z,12.12
2018-09-26T04:24:52.362Z,12.03
2018-09-26T04:27:20.913Z,12.24
2018-09-26T04:29:49.460Z,11.99
2018-09-26T04:32:17.915Z,12.04
2018-09-26T04:34:46.303Z,11.72
2018-09-26T04:37:14.685Z,11.86
2018-09-26T04:39:43.076Z,11.79
2018-09-26T04:42:11.395Z,11.94
2018-09-26T04:44:39.810Z,12.08
2018-09-26T04:47:08.214Z,11.79
2018-09-26T04:49:37.138Z,12.07
2018-09-26T04:52:05.503Z,11.49
2018-09-26T04:54:35.824Z,11.86
2018-09-26T04:57:04.220Z,11.61
2018-09-26T04:59:32.607Z,11.63
2018-09-26T05:02:01.019Z,11.73
2018-09-26T05:04:29.418Z,10.90
2018-09-26T05:06:57.838Z,11.25
2018-09-26T05:09:26.256Z,11.25
2018-09-26T05:11:54.694Z,11.08
2018-09-26T05:14:23.070Z,10.79
2018-09-26T05:16:51.463Z,10.34
2018-09-26T05:19:19.905Z,11.01
2018-09-26T05:21:48.650Z,11.08
2018-09-26T05:24:17.119Z,11.89
2018-09-26T05:26:46.077Z,12.01
2018-09-26T05:29:14.481Z,11.83
2018-09-26T05:31:42.836Z,11.40
2018-09-26T05:34:11.278Z,11.24
2018-09-26T05:36:39.659Z,11.52
2018-09-26T05:39:09.723Z,11.37
2018-09-26T05:41:38.257Z,11.33
2018-09-26T05:44:06.935Z,11.56
2018-09-26T05:46:35.374Z,11.29
2018-09-26T05:49:04.121Z,11.37
2018-09-26T05:51:32.492Z,11.94
2018-09-26T05:54:03.918Z,12.36
2018-09-26T05:56:32.778Z,12.15
2018-09-26T05:59:01.205Z,12.90
2018-09-26T06:01:29.738Z,11.82
2018-09-26T06:03:58.221Z,12.13
2018-09-26T06:06:26.761Z,13.07
2018-09-26T06:08:55.792Z,13.05
2018-09-26T06:14:04.302Z,12.66
2018-09-26T06:16:32.692Z,13.18
2018-09-26T06:19:01.127Z,13.04
2018-09-26T06:21:29.507Z,12.92
2018-09-26T06:23:58.897Z,12.62
2018-09-26T06:26:27.693Z,12.82
2018-09-26T06:28:56.428Z,12.86
2018-09-26T06:31:24.823Z,13.12
2018-09-26T06:33:53.239Z,13.54
2018-09-26T06:36:21.788Z,13.94
2018-09-26T06:38:50.283Z,13.87
2018-09-26T06:41:19.691Z,13.89
2018-09-26T06:43:48.265Z,14.29
2018-09-26T06:46:16.747Z,14.87
2018-09-26T06:48:45.123Z,14.13
2018-09-26T06:51:13.723Z,13.98
2018-09-26T06:53:42.181Z,14.61
2018-09-26T06:56:10.672Z,15.00
2018-09-26T06:58:39.132Z,14.99
2018-09-26T07:01:07.879Z,15.31
2018-09-26T07:03:36.342Z,15.41
2018-09-26T07:06:04.968Z,15.52
2018-09-26T07:08:33.414Z,15.98
2018-09-26T07:11:01.901Z,15.73
2018-09-26T07:13:30.458Z,15.20
2018-09-26T07:15:58.922Z,15.59
2018-09-26T07:18:27.431Z,16.02
2018-09-26T07:20:55.910Z,15.44
2018-09-26T07:23:24.337Z,15.75
2018-09-26T07:25:52.823Z,15.73
2018-09-26T07:28:21.271Z,16.10
2018-09-26T07:30:49.704Z,15.66
2018-09-26T07:33:18.135Z,15.68
2018-09-26T07:35:46.579Z,15.67
2018-09-26T07:38:15.184Z,15.86
2018-09-26T07:40:43.610Z,16.37
2018-09-26T07:43:12.277Z,16.61
2018-09-26T07:45:40.759Z,16.20
2018-09-26T07:48:09.217Z,16.84
2018-09-26T07:50:37.623Z,17.07
2018-09-26T07:53:06.249Z,17.13
2018-09-26T07:55:34.611Z,16.57
2018-09-26T07:58:03.150Z,17.01
2018-09-26T08:00:31.642Z,17.45
2018-09-26T08:03:00.115Z,17.89
2018-09-26T08:05:29.650Z,17.21
2018-09-26T08:07:58.187Z,17.98
2018-09-26T08:10:26.715Z,18.21
2018-09-26T08:12:55.133Z,18.07
2018-09-26T08:15:23.537Z,18.29
2018-09-26T08:17:52.063Z,19.17
2018-09-26T08:20:20.565Z,19.17
2018-09-26T08:22:48.950Z,19.68
2018-09-26T08:25:17.360Z,20.65
2018-09-26T08:27:45.935Z,20.16
2018-09-26T08:30:14.358Z,20.73
2018-09-26T08:32:42.782Z,20.04
2018-09-26T08:35:11.256Z,19.84
2018-09-26T08:37:39.655Z,20.46
2018-09-26T08:40:08.094Z,20.40
2018-09-26T08:42:36.499Z,21.09
2018-09-26T08:45:04.960Z,22.26
2018-09-26T08:47:33.446Z,21.77
2018-09-26T08:50:01.887Z,22.89
2018-09-26T08:52:31.347Z,24.15
2018-09-26T08:54:59.762Z,25.12
2018-09-26T08:57:29.201Z,24.83
2018-09-26T08:59:57.743Z,25.35
2018-09-26T09:02:26.158Z,25.62
2018-09-26T09:04:54.793Z,25.11
2018-09-26T09:07:25.752Z,26.09
2018-09-26T09:09:54.084Z,26.15
2018-09-26T09:12:22.444Z,23.94
2018-09-26T09:14:50.932Z,23.67
2018-09-26T09:17:19.035Z,24.15
2018-09-26T09:19:47.379Z,24.16
2018-09-26T09:22:15.775Z,23.49
2018-09-26T09:24:44.177Z,22.72
2018-09-26T09:27:12.663Z,23.36
2018-09-26T09:29:41.000Z,22.82
2018-09-26T09:32:09.368Z,22.26
2018-09-26T09:34:37.711Z,22.90
2018-09-26T09:37:06.136Z,22.78
2018-09-26T09:39:34.515Z,22.72
2018-09-26T09:42:02.899Z,22.96
2018-09-26T09:44:31.452Z,22.70
2018-09-26T09:46:59.844Z,23.04
2018-09-26T09:49:28.270Z,24.12
2018-09-26T09:51:56.655Z,24.10
2018-09-26T09:54:25.271Z,24.40
2018-09-26T09:56:53.639Z,24.30
2018-09-26T09:59:22.083Z,23.90
2018-09-26T10:01:50.460Z,23.55
2018-09-26T10:04:18.846Z,24.17
2018-09-26T10:06:47.213Z,23.68
2018-09-26T10:09:15.669Z,24.02
2018-09-26T10:11:44.031Z,24.66
2018-09-26T10:14:12.463Z,24.66
2018-09-26T10:16:40.821Z,24.48
2018-09-26T10:19:09.249Z,23.75
2018-09-26T10:21:37.622Z,23.37
2018-09-26T10:24:06.208Z,22.63
2018-09-26T10:26:34.656Z,21.92
2018-09-26T10:29:03.003Z,21.90
2018-09-26T10:31:31.443Z,21.82
2018-09-26T10:33:59.839Z,22.13
2018-09-26T10:36:28.211Z,22.85
2018-09-26T10:38:56.611Z,22.84
2018-09-26T10:41:25.066Z,23.39
2018-09-26T10:43:53.488Z,23.84
2018-09-26T10:46:21.878Z,24.58
2018-09-26T10:48:50.212Z,24.83
2018-09-26T10:51:18.619Z,25.75
2018-09-26T10:53:47.008Z,24.99
2018-09-26T10:56:17.414Z,24.14
2018-09-26T10:58:45.703Z,23.49
2018-09-26T11:01:13.998Z,23.98
2018-09-26T11:03:42.333Z,23.18
2018-09-26T11:06:10.651Z,24.19
2018-09-26T11:08:39.014Z,22.92
2018-09-26T11:11:07.761Z,23.17
2018-09-26T11:13:36.142Z,23.28
2018-09-26T11:16:04.673Z,23.31
2018-09-26T11:18:32.957Z,24.00
2018-09-26T11:21:01.373Z,24.45
2018-09-26T11:23:29.726Z,24.45
2018-09-26T11:25:58.558Z,24.77
2018-09-26T11:28:27.038Z,25.02
2018-09-26T11:30:55.351Z,24.96
2018-09-26T11:33:24.726Z,24.64
2018-09-26T11:35:53.020Z,24.18
2018-09-26T11:38:21.382Z,24.78
2018-09-26T11:40:49.876Z,24.34
2018-09-26T11:43:18.517Z,24.89
2018-09-26T11:45:46.937Z,25.07
2018-09-26T11:48:15.241Z,24.29
2018-09-26T11:50:45.152Z,24.82
2018-09-26T11:53:13.551Z,25.80
2018-09-26T11:55:42.163Z,26.43
2018-09-26T11:58:10.683Z,26.26
2018-09-26T12:00:39.210Z,26.10
2018-09-26T12:03:08.747Z,25.55
2018-09-26T12:05:37.264Z,24.88
2018-09-26T12:08:07.566Z,25.17
2018-09-26T12:10:36.163Z,24.42
2018-09-26T12:13:05.090Z,24.42
2018-09-26T12:15:33.405Z,24.32
2018-09-26T12:18:01.699Z,24.51
2018-09-26T12:20:30.024Z,24.61
2018-09-26T12:25:51.112Z,23.96
2018-09-26T12:28:22.528Z,23.98
2018-09-26T12:30:52.361Z,23.47
2018-09-26T12:33:20.780Z,23.41
2018-09-26T12:35:54.794Z,22.77
2018-09-26T12:38:23.349Z,23.16
2018-09-26T12:40:51.899Z,22.59
2018-09-26T12:43:20.321Z,23.03
2018-09-26T12:45:48.738Z,22.74
2018-09-26T12:48:19.641Z,23.42
2018-09-26T12:50:48.562Z,22.69
2018-09-26T12:53:17.063Z,22.93
2018-09-26T12:55:45.560Z,22.90
2018-09-26T12:58:13.958Z,21.99
2018-09-26T13:00:42.398Z,22.24
2018-09-26T13:03:10.767Z,22.50
2018-09-26T13:05:39.087Z,21.84
2018-09-26T13:08:07.687Z,22.16
2018-09-26T13:10:35.928Z,21.66
2018-09-26T13:13:04.280Z,21.86
2018-09-26T13:15:32.548Z,21.62
2018-09-26T13:18:00.820Z,21.49
2018-09-26T13:20:29.142Z,20.99
2018-09-26T13:22:57.484Z,21.09
2018-09-26T13:25:25.889Z,21.11
2018-09-26T13:27:54.200Z,20.82
2018-09-26T13:30:22.547Z,21.03
2018-09-26T13:32:50.838Z,20.91
2018-09-26T13:35:19.139Z,20.55
2018-09-26T13:37:47.480Z,20.89
2018-09-26T13:40:16.052Z,20.97
2018-09-26T13:42:44.483Z,21.40
2018-09-26T13:45:12.941Z,21.20
2018-09-26T13:47:41.299Z,21.15
2018-09-26T13:50:10.626Z,21.55
2018-09-26T13:52:39.099Z,20.80
2018-09-26T13:55:08.319Z,20.94
2018-09-26T13:57:36.697Z,21.60
2018-09-26T14:00:05.949Z,22.05
2018-09-26T14:02:34.539Z,22.34
2018-09-26T14:05:03.181Z,21.85
2018-09-26T14:07:37.698Z,22.17
2018-09-26T14:10:06.011Z,21.86
2018-09-26T14:12:34.365Z,21.64
2018-09-26T14:15:02.785Z,21.46
2018-09-26T14:17:31.085Z,21.95
2018-09-26T14:20:16.386Z,21.88
2018-09-26T14:22:45.658Z,21.41
2018-09-26T14:28:01.236Z,21.46
2018-09-26T14:30:31.046Z,21.80
2018-09-26T14:33:01.131Z,21.80
2018-09-26T14:35:30.052Z,21.57
2018-09-26T14:38:01.433Z,21.57
2018-09-26T14:40:30.959Z,22.01
2018-09-26T14:43:01.976Z,21.71
2018-09-26T14:45:31.869Z,21.25
2018-09-26T14:48:00.376Z,21.17
2018-09-26T14:50:28.961Z,21.13
2018-09-26T14:52:58.689Z,20.91
2018-09-26T14:55:32.916Z,21.44
2018-09-26T14:58:02.302Z,21.21
2018-09-26T15:00:38.081Z,21.64
2018-09-26T15:03:07.182Z,21.18
2018-09-26T15:05:39.958Z,21.66
2018-09-26T15:08:08.891Z,21.23
2018-09-26T15:10:37.471Z,22.00
2018-09-26T15:13:06.137Z,21.79
2018-09-26T15:15:34.812Z,21.34
2018-09-26T15:18:03.447Z,21.35
2018-09-26T15:20:32.053Z,21.75
2018-09-26T15:23:00.684Z,21.18
2018-09-26T15:25:29.304Z,20.94
2018-09-26T15:27:58.007Z,21.03
2018-09-26T15:30:26.580Z,21.05
2018-09-26T15:32:56.163Z,21.29
2018-09-26T15:35:24.687Z,21.30
2018-09-26T15:37:53.118Z,21.19
2018-09-26T15:40:21.590Z,20.82
2018-09-26T15:42:50.092Z,20.51
2018-09-26T15:45:18.715Z,20.77
2018-09-26T15:47:47.181Z,20.43
2018-09-26T15:50:15.774Z,20.91
2018-09-26T15:52:45.355Z,20.44
2018-09-26T15:55:14.367Z,20.92
2018-09-26T16:00:24.616Z,21.18
2018-09-26T16:02:52.994Z,20.92
2018-09-26T16:05:23.691Z,20.95
2018-09-26T16:07:52.421Z,20.93
2018-09-26T16:10:21.231Z,20.87
2018-09-26T16:12:50.923Z,20.88
2018-09-26T16:15:19.608Z,20.86
2018-09-26T16:17:48.071Z,20.80
2018-09-26T16:20:16.912Z,20.49
2018-09-26T16:22:45.468Z,19.86
2018-09-26T16:25:13.897Z,19.45
2018-09-26T16:27:42.187Z,19.52
2018-09-26T16:30:10.843Z,19.58
2018-09-26T16:32:39.179Z,19.80
2018-09-26T16:35:07.548Z,19.80
2018-09-26T16:37:35.834Z,19.67
2018-09-26T16:40:04.332Z,19.98
2018-09-26T16:42:32.765Z,20.07
2018-09-26T16:45:01.079Z,20.10
2018-09-26T16:47:29.363Z,19.44
2018-09-26T16:49:57.849Z,19.42
2018-09-26T16:52:26.341Z,19.64
2018-09-26T16:54:54.510Z,19.65
2018-09-26T16:57:22.824Z,19.06
2018-09-26T16:59:51.140Z,19.03
2018-09-26T17:02:19.506Z,19.33
2018-09-26T17:04:49.140Z,19.19
2018-09-26T17:07:17.495Z,18.94
2018-09-26T17:09:45.849Z,18.60
2018-09-26T17:12:14.317Z,18.83
2018-09-26T17:14:42.738Z,18.44
2018-09-26T17:17:11.464Z,18.95
2018-09-26T17:19:39.935Z,19.01
2018-09-26T17:22:08.435Z,18.96
2018-09-26T17:24:36.935Z,18.65
2018-09-26T17:27:05.435Z,18.56
2018-09-26T17:29:33.926Z,17.70
2018-09-26T17:32:02.248Z,17.97
2018-09-26T17:34:31.121Z,18.10
2018-09-26T17:36:59.572Z,18.44
2018-09-26T17:39:28.060Z,18.58
2018-09-26T17:41:56.527Z,18.56
2018-09-26T17:44:25.051Z,18.14
2018-09-26T17:46:53.572Z,17.69
2018-09-26T17:49:22.054Z,18.50
2018-09-26T17:51:50.582Z,18.47
2018-09-26T17:54:18.993Z,18.20
2018-09-26T17:56:47.393Z,17.99
2018-09-26T17:59:15.947Z,18.37
2018-09-26T18:04:24.865Z,18.19
2018-09-26T18:06:56.158Z,18.29
2018-09-26T18:09:24.613Z,18.15
2018-09-26T18:11:53.020Z,18.18
2018-09-26T18:14:21.504Z,17.67
2018-09-26T18:16:50.987Z,18.16
2018-09-26T18:19:19.442Z,18.07
2018-09-26T18:21:47.947Z,17.85
2018-09-26T18:24:16.427Z,17.85
2018-09-26T18:26:44.895Z,17.82
2018-09-26T18:29:23.345Z,17.88
2018-09-26T18:31:52.040Z,17.93
2018-09-26T18:34:20.534Z,17.89
2018-09-26T18:36:48.999Z,17.52
2018-09-26T18:39:17.547Z,17.52
2018-09-26T18:41:45.988Z,17.46
2018-09-26T18:44:14.494Z,17.25
2018-09-26T18:46:43.975Z,16.84
2018-09-26T18:49:12.598Z,17.25
2018-09-26T18:51:41.005Z,17.45
2018-09-26T18:54:09.460Z,17.61
2018-09-26T18:59:21.603Z,17.63
2018-09-26T19:01:49.897Z,17.58
2018-09-26T19:04:19.771Z,17.43
2018-09-26T19:06:48.114Z,17.53
2018-09-26T19:09:16.424Z,17.50
2018-09-26T19:11:44.763Z,17.05
2018-09-26T19:14:13.075Z,17.45
2018-09-26T19:16:41.374Z,17.34
2018-09-26T19:19:09.680Z,17.54
2018-09-26T19:21:38.073Z,17.58
2018-09-26T19:24:06.410Z,17.49
2018-09-26T19:26:34.745Z,17.26
2018-09-26T19:29:03.057Z,17.36
2018-09-26T19:31:31.657Z,17.38
2018-09-26T19:34:00.385Z,17.29
2018-09-26T19:36:31.789Z,17.31
2018-09-26T19:39:00.057Z,17.32
2018-09-26T19:41:28.497Z,17.23
2018-09-26T19:43:56.898Z,17.00
2018-09-26T19:46:25.498Z,17.08
2018-09-26T19:48:53.937Z,17.08
2018-09-26T19:51:22.750Z,16.67
2018-09-26T19:53:51.325Z,16.79
2018-09-26T19:56:19.855Z,16.92
2018-09-26T19:58:49.887Z,16.71
2018-09-26T20:01:18.238Z,16.72
2018-09-26T20:03:46.746Z,16.49
2018-09-26T20:06:18.446Z,16.63
2018-09-26T20:08:47.128Z,16.57
2018-09-26T20:11:18.699Z,16.81
2018-09-26T20:13:47.211Z,16.89
2018-09-26T20:16:15.589Z,16.81
2018-09-26T20:18:44.232Z,16.72
2018-09-26T20:21:12.610Z,16.83
2018-09-26T20:23:40.979Z,16.84
2018-09-26T20:26:09.410Z,16.84
2018-09-26T20:28:37.748Z,16.80
2018-09-26T20:31:06.174Z,16.64
2018-09-26T20:33:34.463Z,16.60
2018-09-26T20:36:02.850Z,16.59
2018-09-26T20:38:31.214Z,16.45
2018-09-26T20:40:59.662Z,16.52
2018-09-26T20:43:28.010Z,16.42
2018-09-26T20:45:56.370Z,16.47
2018-09-26T20:48:24.704Z,16.45
2018-09-26T20:50:53.015Z,16.38
2018-09-26T20:53:21.319Z,16.41
2018-09-26T20:55:56.112Z,16.38
2018-09-26T20:58:24.496Z,16.42
2018-09-26T21:00:52.916Z,16.41
2018-09-26T21:03:21.410Z,16.47
2018-09-26T21:05:49.817Z,16.02
2018-09-26T21:08:18.254Z,16.25
2018-09-26T21:10:46.591Z,16.12
2018-09-26T21:13:14.983Z,16.07
2018-09-26T21:15:43.320Z,15.99
2018-09-26T21:18:11.694Z,15.56
2018-09-26T21:20:40.038Z,15.82
2018-09-26T21:23:08.444Z,15.85
2018-09-26T21:25:36.786Z,15.71
2018-09-26T21:28:05.137Z,15.60
2018-09-26T21:30:33.504Z,15.51
2018-09-26T21:33:01.904Z,15.73
2018-09-26T21:35:31.037Z,15.59
2018-09-26T21:37:59.439Z,15.57
2018-09-26T21:40:27.817Z,15.31
2018-09-26T21:42:56.175Z,15.56
2018-09-26T21:45:24.607Z,15.45
2018-09-26T21:47:52.945Z,15.72
2018-09-26T21:50:21.364Z,15.52
2018-09-26T21:52:50.224Z,15.75
2018-09-26T21:55:18.532Z,15.33
2018-09-26T21:57:46.927Z,15.07
2018-09-26T22:00:15.374Z,15.34
2018-09-26T22:02:43.752Z,15.30
2018-09-26T22:05:12.169Z,15.09
2018-09-26T22:07:40.513Z,15.26
2018-09-26T22:10:08.896Z,15.38
2018-09-26T22:12:37.224Z,15.44
2018-09-26T22:15:10.019Z,15.08
2018-09-26T22:17:38.446Z,15.23
2018-09-26T22:20:06.953Z,15.35
2018-09-26T22:22:35.364Z,15.08
2018-09-26T22:25:03.683Z,14.99
2018-09-26T22:27:32.101Z,15.12
2018-09-26T22:30:00.571Z,15.08
2018-09-26T22:32:29.003Z,15.05
2018-09-26T22:34:57.337Z,14.91
2018-09-26T22:37:25.651Z,14.91
2018-09-26T22:39:53.935Z,14.94
2018-09-26T22:42:22.607Z,14.68
2018-09-26T22:44:50.914Z,14.94
2018-09-26T22:47:19.247Z,14.89
2018-09-26T22:49:47.587Z,14.88
2018-09-26T22:52:15.943Z,15.17
2018-09-26T22:54:44.319Z,15.21
2018-09-26T22:57:12.682Z,15.36
2018-09-26T22:59:41.022Z,15.30
2018-09-26T23:02:09.354Z,15.52
2018-09-26T23:04:37.707Z,15.42
2018-09-26T23:07:06.107Z,15.34
2018-09-26T23:09:34.500Z,15.49
2018-09-26T23:12:03.187Z,15.46
2018-09-26T23:14:31.685Z,15.01
2018-09-26T23:17:00.392Z,15.42
2018-09-26T23:19:29.259Z,14.98
2018-09-26T23:21:58.060Z,15.12
2018-09-26T23:24:26.834Z,15.04
2018-09-26T23:26:55.610Z,14.88
2018-09-26T23:29:24.293Z,15.31
2018-09-26T23:31:53.063Z,15.12
2018-09-26T23:34:21.790Z,14.87
2018-09-26T23:36:50.567Z,14.09
2018-09-26T23:39:19.348Z,14.74
2018-09-26T23:41:48.008Z,14.93
2018-09-26T23:44:16.667Z,14.78
2018-09-26T23:46:45.428Z,15.35
2018-09-26T23:49:14.265Z,15.34
2018-09-26T23:51:43.127Z,14.70
2018-09-26T23:54:11.871Z,14.97
2018-09-26T23:56:40.630Z,14.93
2018-09-26T23:59:09.320Z,14.80
